Time;durP1;ratioP1;P1;durP2;ratioP2;P2;SDS_P1;SDS_P2;PMS_P1;PMS_P2;Temp;Humidity;BMP_temperature;BMP_pressure;BME280_temperature;BME280_humidity;BME280_pressure;Samples;Min_cycle;Max_cycle;Signal;HPM_P1;HPM_P2
2021/04/19 00:02:52;;;;;;;85.50;43.15;;;;;;;6.54;82.70;99003.34;2156391;82;21214;-86
2021/04/19 00:05:54;;;;;;;84.10;43.02;;;;;;;6.54;82.81;99005.94;2156174;83;21728;-86
2021/04/19 00:08:55;;;;;;;69.07;39.48;;;;;;;6.55;82.94;98994.56;2156267;82;21725;-86
2021/04/19 00:11:57;;;;;;;69.40;41.28;;;;;;;6.58;82.84;98991.33;2156072;82;21316;-86
2021/04/19 00:14:58;;;;;;;74.67;41.00;;;;;;;6.63;82.92;98985.21;2156086;82;21174;-84
2021/04/19 00:18:01;;;;;;;73.75;40.58;;;;;;;6.62;82.89;98984.88;2156126;83;21348;-85
2021/04/19 00:21:02;;;;;;;73.17;40.73;;;;;;;6.64;82.99;98981.64;2156068;82;21348;-87
2021/04/19 00:24:04;;;;;;;66.65;38.28;;;;;;;6.63;82.96;98983.42;2156187;82;22327;-86
2021/04/19 00:27:06;;;;;;;74.65;41.15;;;;;;;6.65;82.94;98976.28;2156341;82;21150;-86
2021/04/19 00:30:07;;;;;;;59.10;33.63;;;;;;;6.65;82.93;98965.88;2156842;82;21151;-85
2021/04/19 00:33:09;;;;;;;57.65;33.83;;;;;;;6.64;82.90;98964.25;2163773;82;21639;-86
2021/04/19 00:36:11;;;;;;;52.55;29.42;;;;;;;6.59;82.84;98966.48;2167874;82;21182;-86
2021/04/19 00:39:13;;;;;;;54.33;30.02;;;;;;;6.59;82.91;98966.97;2167789;82;21324;-85
2021/04/19 00:42:14;;;;;;;69.53;36.68;;;;;;;6.55;82.81;98967.73;2167997;82;21162;-84
2021/04/19 00:45:17;;;;;;;102.62;48.33;;;;;;;6.58;83.12;98964.01;2168021;82;21185;-85
2021/04/19 00:48:19;;;;;;;109.10;50.58;;;;;;;6.67;83.10;98967.84;2167961;82;21582;-85
2021/04/19 00:51:20;;;;;;;120.92;60.48;;;;;;;6.76;82.98;98965.65;2167630;82;21312;-85
2021/04/19 00:54:22;;;;;;;94.15;51.10;;;;;;;6.81;82.78;98960.83;2167832;82;21934;-85
2021/04/19 00:57:25;;;;;;;81.37;45.35;;;;;;;6.88;82.91;98961.05;2142040;82;21324;-86
2021/04/19 01:00:26;;;;;;;102.40;52.13;;;;;;;6.92;82.74;98959.77;2167659;82;21685;-84
2021/04/19 01:03:28;;;;;;;131.72;62.43;;;;;;;6.95;82.76;98955.59;2167825;82;21300;-85
2021/04/19 01:06:31;;;;;;;122.80;60.03;;;;;;;7.00;82.80;98965.53;2167809;82;21181;-84
2021/04/19 01:09:33;;;;;;;96.87;50.88;;;;;;;7.04;82.71;98974.22;2167957;82;21193;-85
2021/04/19 01:12:35;;;;;;;81.75;41.15;;;;;;;7.02;82.47;98963.59;2168061;82;21189;-85
2021/04/19 01:15:38;;;;;;;76.30;40.50;;;;;;;7.00;82.49;98962.94;2167929;82;21178;-85
2021/04/19 01:18:39;;;;;;;109.67;52.55;;;;;;;6.97;82.47;98960.16;2167744;82;21280;-85
2021/04/19 01:21:41;;;;;;;117.57;57.25;;;;;;;6.98;82.59;98961.78;2167992;82;21186;-85
2021/04/19 01:24:43;;;;;;;90.03;46.92;;;;;;;6.99;82.70;98960.00;2168014;82;21150;-85
2021/04/19 01:27:45;;;;;;;87.05;44.60;;;;;;;7.05;82.89;98952.41;2167725;82;21178;-85
2021/04/19 01:30:46;;;;;;;98.15;48.95;;;;;;;7.12;82.78;98943.48;2168069;82;21186;-86
2021/04/19 01:33:48;;;;;;;92.45;47.75;;;;;;;7.17;82.88;98941.75;2167791;82;21760;-85
2021/04/19 01:36:50;;;;;;;97.00;49.45;;;;;;;7.27;82.76;98943.77;2167641;82;21529;-85
2021/04/19 01:39:52;;;;;;;107.32;53.78;;;;;;;7.31;82.64;98937.27;2167680;82;21169;-85
2021/04/19 01:42:54;;;;;;;87.82;46.98;;;;;;;7.34;82.58;98941.70;2167749;82;21164;-84
2021/04/19 01:45:55;;;;;;;89.55;46.35;;;;;;;7.40;82.72;98937.65;2167651;82;21154;-85
2021/04/19 01:48:57;;;;;;;87.35;46.63;;;;;;;7.50;82.76;98927.13;2167676;82;21177;-85
2021/04/19 01:51:58;;;;;;;85.03;48.40;;;;;;;7.58;82.69;98936.29;2167686;82;21879;-84
2021/04/19 01:55:01;;;;;;;94.13;43.13;;;;;;;7.62;82.58;98925.41;2167855;82;21176;-85
2021/04/19 01:58:02;;;;;;;95.38;44.00;;;;;;;7.64;82.44;98927.37;2167899;82;21705;-85
2021/04/19 02:01:04;;;;;;;62.90;33.00;;;;;;;7.69;82.43;98923.83;2167920;82;21566;-85
2021/04/19 02:04:06;;;;;;;51.05;29.27;;;;;;;7.69;82.28;98919.10;2167848;82;21611;-85
2021/04/19 02:07:08;;;;;;;55.60;30.08;;;;;;;7.65;82.07;98915.97;2167847;82;21162;-86
2021/04/19 02:10:09;;;;;;;55.28;31.10;;;;;;;7.62;82.05;98918.08;2168068;82;21150;-85
2021/04/19 02:13:11;;;;;;;52.85;29.63;;;;;;;7.62;82.10;98925.91;2168148;82;21178;-85
2021/04/19 02:16:13;;;;;;;44.73;28.40;;;;;;;7.62;82.05;98925.41;2168326;82;21173;-85
2021/04/19 02:19:15;;;;;;;58.58;31.57;;;;;;;7.64;82.15;98914.34;2168489;82;21347;-85
2021/04/19 02:22:16;;;;;;;49.03;28.40;;;;;;;7.69;82.13;98911.28;2168106;82;21664;-85
2021/04/19 02:25:18;;;;;;;50.55;29.75;;;;;;;7.73;82.03;98911.28;2168121;82;21509;-85
2021/04/19 02:28:20;;;;;;;48.90;31.20;;;;;;;7.71;81.95;98904.12;2168160;82;21171;-85
2021/04/19 02:31:22;;;;;;;49.25;30.00;;;;;;;7.72;82.03;98909.66;2167827;82;21292;-86
2021/04/19 02:34:24;;;;;;;49.50;30.68;;;;;;;7.70;82.06;98911.13;2158014;82;21591;-85
2021/04/19 02:37:26;;;;;;;53.13;32.40;;;;;;;7.75;82.09;98902.81;2156337;82;21603;-85
2021/04/19 02:40:28;;;;;;;52.20;31.82;;;;;;;7.78;82.02;98897.31;2156062;82;21146;-85
2021/04/19 02:43:30;;;;;;;60.23;34.15;;;;;;;7.77;81.87;98901.35;2156426;82;21296;-85
2021/04/19 02:46:31;;;;;;;56.37;34.65;;;;;;;7.75;81.85;98900.70;2156497;83;21164;-84
2021/04/19 02:49:33;;;;;;;62.50;34.20;;;;;;;7.70;81.86;98898.09;2157332;83;21305;-86
2021/04/19 02:52:35;;;;;;;55.40;33.25;;;;;;;7.70;82.00;98892.06;2156978;82;21602;-85
2021/04/19 02:55:37;;;;;;;51.68;30.65;;;;;;;7.66;81.98;98885.02;2156511;83;21617;-85
2021/04/19 02:58:38;;;;;;;57.43;32.55;;;;;;;7.62;81.98;98884.20;2156385;83;21308;-85
2021/04/19 03:01:40;;;;;;;54.83;33.05;;;;;;;7.57;82.08;98891.66;2156002;82;21324;-85
2021/04/19 03:04:42;;;;;;;53.95;31.35;;;;;;;7.57;82.29;98890.36;2156262;83;21304;-86
2021/04/19 03:07:43;;;;;;;54.25;32.73;;;;;;;7.53;82.22;98891.66;2156436;82;21582;-86
2021/04/19 03:10:45;;;;;;;50.40;31.80;;;;;;;7.54;82.37;98892.80;2156015;82;21154;-86
2021/04/19 03:13:47;;;;;;;50.48;30.50;;;;;;;7.55;82.51;98892.31;2156171;82;21147;-85
2021/04/19 03:16:49;;;;;;;53.05;32.48;;;;;;;7.48;82.44;98884.78;2156287;82;21198;-85
2021/04/19 03:19:51;;;;;;;54.48;31.48;;;;;;;7.43;82.44;98879.23;2156081;82;21316;-85
2021/04/19 03:22:53;;;;;;;56.18;33.05;;;;;;;7.41;82.63;98880.20;2155972;82;21181;-85
2021/04/19 03:25:55;;;;;;;50.45;29.42;;;;;;;7.41;82.65;98880.20;2156247;83;21182;-85
2021/04/19 03:28:56;;;;;;;54.40;31.27;;;;;;;7.39;82.63;98881.31;2156048;82;21652;-85
2021/04/19 03:31:58;;;;;;;50.00;29.40;;;;;;;7.39;82.71;98883.92;2156040;83;21288;-86
2021/04/19 03:35:00;;;;;;;53.00;31.48;;;;;;;7.39;83.03;98879.52;2156086;82;21349;-86
2021/04/19 03:38:02;;;;;;;60.45;34.45;;;;;;;7.43;82.75;98884.44;2156240;82;21155;-85
2021/04/19 03:41:04;;;;;;;54.70;34.10;;;;;;;7.44;82.70;98876.95;2156133;82;21301;-85
2021/04/19 03:44:06;;;;;;;58.13;33.88;;;;;;;7.48;82.82;98877.77;2156014;82;21158;-87
2021/04/19 03:47:08;;;;;;;63.58;35.28;;;;;;;7.49;82.68;98877.29;2156251;82;21717;-86
2021/04/19 03:50:11;;;;;;;64.20;38.35;;;;;;;7.46;82.58;98879.73;2156362;82;21780;-85
2021/04/19 03:53:13;;;;;;;163.18;90.57;;;;;;;7.44;82.61;98879.56;2156355;82;21340;-85
2021/04/19 03:56:14;;;;;;;163.18;76.10;;;;;;;7.48;82.87;98876.96;2156201;82;21336;-85
2021/04/19 03:59:16;;;;;;;117.60;51.92;;;;;;;7.51;82.73;98891.00;2156279;83;21793;-85
2021/04/19 04:02:18;;;;;;;75.95;38.28;;;;;;;7.52;82.64;98883.02;2156468;82;21313;-86
2021/04/19 04:05:23;;;;;;;57.75;33.15;;;;;;;7.57;82.73;98886.45;2155945;82;21728;-85
2021/04/19 04:08:25;;;;;;;81.85;39.25;;;;;;;7.65;82.74;98895.61;2156208;82;21320;-85
2021/04/19 04:11:26;;;;;;;85.17;41.80;;;;;;;7.72;82.69;98889.30;2156281;83;21331;-84
2021/04/19 04:14:28;;;;;;;81.22;40.67;;;;;;;7.74;82.60;98888.64;2155945;82;21115;-86
2021/04/19 04:17:30;;;;;;;60.12;35.63;;;;;;;7.75;82.69;98889.78;2156009;82;21288;-85
2021/04/19 04:20:31;;;;;;;59.73;34.85;;;;;;;7.80;82.66;98884.93;2156268;82;21344;-87
2021/04/19 04:23:36;;;;;;;58.15;34.75;;;;;;;7.80;82.51;98884.93;2156309;82;21304;-86
2021/04/19 04:26:38;;;;;;;67.87;37.03;;;;;;;7.68;82.34;98893.53;2156214;83;21186;-86
2021/04/19 04:29:40;;;;;;;63.85;35.73;;;;;;;7.62;82.50;98892.84;2155894;82;21158;-86
2021/04/19 04:32:43;;;;;;;60.23;35.85;;;;;;;7.62;82.60;98898.05;2155833;82;21252;-85
2021/04/19 04:35:45;;;;;;;60.78;36.70;;;;;;;7.70;82.81;98893.36;2155926;82;21174;-85
2021/04/19 04:38:46;;;;;;;64.45;37.03;;;;;;;7.77;82.71;98894.84;2156211;82;21316;-85
2021/04/19 04:41:48;;;;;;;74.67;43.02;;;;;;;7.74;82.60;98888.16;2156236;82;21293;-86
2021/04/19 04:44:50;;;;;;;68.92;42.50;;;;;;;7.80;82.76;98888.03;2155778;82;21123;-85
2021/04/19 04:47:51;;;;;;;71.82;42.25;;;;;;;7.81;82.59;98892.27;2156185;83;21750;-84
2021/04/19 04:50:53;;;;;;;68.67;40.58;;;;;;;7.78;82.54;98887.38;2155925;82;21356;-85
2021/04/19 04:53:55;;;;;;;71.75;43.13;;;;;;;7.78;82.53;98888.67;2156080;82;21301;-89
2021/04/19 04:56:57;;;;;;;79.53;45.50;;;;;;;7.76;82.59;98890.59;2156236;82;21345;-82
2021/04/19 04:59:58;;;;;;;64.70;38.38;;;;;;;7.75;82.66;98892.39;2156213;82;21313;-85
2021/04/19 05:03:00;;;;;;;63.78;41.15;;;;;;;7.74;82.59;98893.38;2156530;82;21559;-83
2021/04/19 05:06:03;;;;;;;54.10;35.68;;;;;;;7.70;82.70;98887.66;2156215;82;21154;-84
2021/04/19 05:09:06;;;;;;;56.48;36.13;;;;;;;7.69;82.67;98891.73;2156174;83;21716;-86
2021/04/19 05:12:08;;;;;;;58.33;35.58;;;;;;;7.66;82.75;98899.84;2156004;82;21292;-85
2021/04/19 05:15:12;;;;;;;57.67;34.48;;;;;;;7.66;82.93;98902.45;2156140;82;21300;-85
2021/04/19 05:18:13;;;;;;;50.33;28.87;;;;;;;7.65;82.95;98897.73;2156267;82;21574;-85
2021/04/19 05:21:16;;;;;;;48.25;31.60;;;;;;;7.63;82.99;98898.38;2156234;82;21167;-88
2021/04/19 05:24:17;;;;;;;55.80;34.83;;;;;;;7.58;83.13;98908.44;2156134;82;21170;-87
2021/04/19 05:27:19;;;;;;;46.68;30.10;;;;;;;7.53;83.15;98914.62;2155901;82;21162;-85
2021/04/19 05:30:21;;;;;;;57.27;34.60;;;;;;;7.51;83.45;98909.24;2156058;82;21170;-82
2021/04/19 05:33:23;;;;;;;55.17;34.03;;;;;;;7.45;83.50;98911.97;2156074;82;21341;-85
2021/04/19 05:36:25;;;;;;;59.70;35.00;;;;;;;7.49;83.68;98908.06;2156168;82;21296;-85
2021/04/19 05:39:27;;;;;;;53.98;33.63;;;;;;;7.49;83.60;98901.55;2156225;82;21328;-83
2021/04/19 05:42:29;;;;;;;57.33;34.40;;;;;;;7.54;83.88;98909.73;2156259;83;21203;-85
2021/04/19 05:45:31;;;;;;;51.60;30.92;;;;;;;7.60;83.73;98907.00;2156052;82;21752;-88
2021/04/19 05:48:33;;;;;;;49.93;31.45;;;;;;;7.60;83.86;98903.91;2156352;82;21713;-84
2021/04/19 05:51:35;;;;;;;54.25;35.40;;;;;;;7.61;83.86;98902.94;2156246;82;21361;-85
2021/04/19 05:54:36;;;;;;;65.45;40.67;;;;;;;7.57;83.70;98895.08;2156535;82;21300;-82
2021/04/19 05:57:38;;;;;;;52.78;34.33;;;;;;;7.61;83.87;98897.72;2156177;83;21320;-86
2021/04/19 06:00:40;;;;;;;52.35;32.48;;;;;;;7.64;83.92;98897.41;2156341;82;21309;-87
2021/04/19 06:03:42;;;;;;;52.27;32.90;;;;;;;7.70;83.98;98898.58;2156346;82;21127;-84
2021/04/19 06:06:44;;;;;;;47.05;30.30;;;;;;;7.69;83.87;98899.55;2157254;83;21159;-82
2021/04/19 06:09:46;;;;;;;51.53;34.40;;;;;;;7.69;84.06;98905.58;2158140;82;21301;-82
2021/04/19 06:12:48;;;;;;;60.60;33.75;;;;;;;7.67;84.14;98907.99;2157120;82;21183;-82
2021/04/19 06:15:50;;;;;;;53.45;31.73;;;;;;;7.70;84.06;98902.00;2156257;83;21769;-83
2021/04/19 06:18:53;;;;;;;44.85;29.40;;;;;;;7.70;84.20;98901.19;2155968;82;21850;-84
2021/04/19 06:21:54;;;;;;;42.78;27.37;;;;;;;7.72;84.10;98894.02;2156203;83;21327;-82
2021/04/19 06:24:57;;;;;;;42.27;28.27;;;;;;;7.74;84.11;98899.07;2156230;82;21324;-85
2021/04/19 06:27:59;;;;;;;52.27;33.58;;;;;;;7.76;84.30;98899.23;2156027;82;21776;-84
2021/04/19 06:31:01;;;;;;;48.58;29.15;;;;;;;7.81;84.29;98899.59;2156199;82;21336;-84
2021/04/19 06:34:04;;;;;;;52.00;30.10;;;;;;;7.93;84.25;98899.62;2160552;82;21304;-84
2021/04/19 06:37:06;;;;;;;45.90;28.90;;;;;;;8.00;84.18;98903.73;2167969;82;21800;-85
2021/04/19 06:40:08;;;;;;;44.15;27.87;;;;;;;8.06;84.08;98897.89;2167922;82;21157;-85
2021/04/19 06:43:10;;;;;;;49.00;31.12;;;;;;;8.13;84.05;98904.57;2167769;82;21185;-84
2021/04/19 06:46:11;;;;;;;50.92;33.02;;;;;;;8.22;84.03;98900.52;2167833;82;21182;-86
2021/04/19 06:49:14;;;;;;;48.25;29.55;;;;;;;8.42;84.05;98893.77;2167960;82;21696;-85
2021/04/19 06:52:15;;;;;;;43.25;29.70;;;;;;;8.58;83.75;98893.75;2167825;82;21632;-85
2021/04/19 06:55:17;;;;;;;49.33;32.88;;;;;;;8.68;83.49;98903.55;2168609;82;21573;-85
2021/04/19 06:58:20;;;;;;;49.23;33.78;;;;;;;8.86;83.57;98896.05;2168363;82;21146;-84
2021/04/19 07:01:22;;;;;;;42.05;27.32;;;;;;;9.06;83.53;98893.44;2168442;82;21205;-84
2021/04/19 07:04:26;;;;;;;44.45;30.45;;;;;;;9.25;83.00;98893.08;2168148;82;21275;-85
2021/04/19 07:07:29;;;;;;;41.40;26.65;;;;;;;9.37;82.84;98894.34;2167922;82;21784;-84
2021/04/19 07:10:31;;;;;;;42.70;26.68;;;;;;;9.60;82.44;98895.77;2168344;82;21182;-84
2021/04/19 07:13:33;;;;;;;42.50;27.73;;;;;;;9.81;82.04;98900.42;2168058;82;21170;-84
2021/04/19 07:16:35;;;;;;;38.42;26.42;;;;;;;9.96;81.81;98900.49;2168244;82;21181;-85
2021/04/19 07:19:38;;;;;;;40.00;27.75;;;;;;;10.06;81.37;98899.81;2167680;82;21316;-84
2021/04/19 07:22:41;;;;;;;40.95;27.82;;;;;;;10.30;81.77;98894.95;2167940;82;21169;-84
2021/04/19 07:25:43;;;;;;;37.17;26.55;;;;;;;10.65;81.85;98891.45;2167825;82;21178;-83
2021/04/19 07:28:45;;;;;;;34.92;25.27;;;;;;;10.95;80.97;98894.45;2167956;82;21312;-86
2021/04/19 07:31:47;;;;;;;33.78;25.27;;;;;;;11.17;80.24;98892.80;2168226;82;21193;-84
2021/04/19 07:34:48;;;;;;;28.65;22.27;;;;;;;11.24;79.89;98887.64;2167812;82;21339;-83
2021/04/19 07:37:51;;;;;;;35.20;25.70;;;;;;;11.35;79.20;98891.96;2168319;82;21186;-84
2021/04/19 07:40:52;;;;;;;33.70;25.62;;;;;;;11.32;79.79;98896.73;2167838;82;21169;-84
2021/04/19 07:43:55;;;;;;;39.42;30.30;;;;;;;11.26;79.89;98903.52;2168125;82;21574;-83
2021/04/19 07:46:58;;;;;;;36.58;26.75;;;;;;;11.22;79.73;98905.36;2167734;82;21241;-85
2021/04/19 07:50:00;;;;;;;39.33;29.60;;;;;;;11.27;79.80;98912.20;2170380;82;21313;-78
2021/04/19 07:53:02;;;;;;;28.42;22.65;;;;;;;11.19;79.67;98905.72;2170674;82;21305;-79
2021/04/19 07:56:04;;;;;;;32.85;25.30;;;;;;;11.17;79.57;98903.78;2170168;82;21272;-83
2021/04/19 07:59:06;;;;;;;49.30;31.90;;;;;;;11.18;80.14;98902.29;2168386;82;21161;-83
2021/04/19 08:02:09;;;;;;;35.10;27.07;;;;;;;11.17;79.97;98893.30;2168689;82;21122;-81
2021/04/19 08:05:11;;;;;;;34.80;26.12;;;;;;;11.11;79.69;98893.01;2168622;82;21173;-81
2021/04/19 08:08:13;;;;;;;35.95;28.15;;;;;;;11.05;79.95;98893.70;2168212;82;21149;-83
2021/04/19 08:11:16;;;;;;;35.52;25.90;;;;;;;11.07;80.13;98896.98;2168765;82;21729;-82
2021/04/19 08:14:18;;;;;;;31.62;24.70;;;;;;;11.14;79.85;98898.38;2168198;82;21293;-78
2021/04/19 08:17:20;;;;;;;32.78;25.15;;;;;;;11.19;79.68;98897.36;2168212;82;21565;-83
2021/04/19 08:20:22;;;;;;;35.25;27.07;;;;;;;11.22;79.35;98894.38;2167869;82;21602;-84
2021/04/19 08:23:24;;;;;;;30.17;24.50;;;;;;;11.19;79.11;98890.81;2168040;82;21161;-83
2021/04/19 08:26:27;;;;;;;39.03;28.75;;;;;;;11.10;78.96;98890.07;2167999;82;21335;-81
2021/04/19 08:29:28;;;;;;;37.48;28.73;;;;;;;11.11;79.41;98889.08;2167980;82;21320;-82
2021/04/19 08:32:30;;;;;;;35.23;28.70;;;;;;;11.23;79.33;98888.13;2167730;82;21296;-82
2021/04/19 08:35:32;;;;;;;29.72;24.07;;;;;;;11.33;79.12;98884.75;2167814;82;21775;-83
2021/04/19 08:38:34;;;;;;;27.50;23.50;;;;;;;11.56;78.66;98886.48;2168169;82;21165;-83
2021/04/19 08:41:36;;;;;;;30.45;23.80;;;;;;;11.66;78.27;98875.22;2168129;82;21189;-83
2021/04/19 08:44:38;;;;;;;26.87;21.80;;;;;;;11.75;78.28;98883.80;2167876;82;21724;-83
2021/04/19 08:47:40;;;;;;;32.05;21.52;;;;;;;11.72;77.80;98880.25;2168072;82;21577;-83
2021/04/19 08:50:42;;;;;;;25.72;20.70;;;;;;;11.87;77.55;98876.61;2167842;82;21327;-83
2021/04/19 08:53:44;;;;;;;29.80;23.18;;;;;;;11.87;77.55;98876.61;2168016;82;21177;-83
2021/04/19 08:56:46;;;;;;;27.05;22.35;;;;;;;12.48;76.90;98864.45;2168445;82;21138;-85
2021/04/19 08:59:48;;;;;;;28.80;21.02;;;;;;;12.48;76.90;98864.45;2168205;82;21146;-88
2021/04/19 09:02:50;;;;;;;26.57;21.07;;;;;;;12.92;76.28;98874.73;2169046;82;21139;-85
2021/04/19 09:05:52;;;;;;;22.85;19.67;;;;;;;13.05;75.15;98864.81;2168150;82;21161;-87
2021/04/19 09:08:54;;;;;;;26.10;21.70;;;;;;;12.98;74.30;98866.07;2167822;82;21511;-84
2021/04/19 09:11:56;;;;;;;19.02;16.90;;;;;;;13.08;75.66;98863.14;2168420;82;21194;-82
2021/04/19 09:14:59;;;;;;;27.30;21.77;;;;;;;13.29;74.11;98867.55;2168071;82;21891;-86
2021/04/19 09:18:00;;;;;;;24.80;19.05;;;;;;;13.34;73.85;98862.50;2168216;82;21311;-84
2021/04/19 09:21:02;;;;;;;18.17;16.27;;;;;;;13.57;74.07;98856.47;2167639;82;21319;-85
2021/04/19 09:24:04;;;;;;;20.37;16.05;;;;;;;13.97;73.11;98850.55;2168000;82;21304;-86
2021/04/19 09:27:07;;;;;;;18.50;16.15;;;;;;;14.19;70.93;98849.41;2167957;82;21189;-82
2021/04/19 09:30:08;;;;;;;20.60;16.85;;;;;;;14.23;71.30;98842.72;2167645;82;21312;-87
2021/04/19 09:33:10;;;;;;;17.62;14.18;;;;;;;14.32;71.79;98833.63;2167779;82;21760;-84
2021/04/19 09:36:12;;;;;;;11.53;10.32;;;;;;;14.46;70.58;98837.94;2158181;82;21829;-86
2021/04/19 09:39:14;;;;;;;13.18;11.08;;;;;;;14.29;65.78;98838.48;2155918;82;21153;-86
2021/04/19 09:42:16;;;;;;;13.45;11.85;;;;;;;14.20;66.79;98826.02;2156046;82;21162;-85
2021/04/19 09:45:18;;;;;;;11.75;10.55;;;;;;;14.34;67.48;98810.52;2156215;82;21155;-85
2021/04/19 09:48:21;;;;;;;10.35;9.35;;;;;;;14.40;64.56;98822.09;2156123;82;21119;-86
2021/04/19 09:51:23;;;;;;;12.80;10.70;;;;;;;14.37;62.87;98814.09;2134911;83;21617;-86
2021/04/19 09:54:26;;;;;;;10.13;8.73;;;;;;;14.39;64.62;98807.30;2156539;82;21698;-86
2021/04/19 09:57:27;;;;;;;9.35;8.10;;;;;;;14.46;64.21;98812.10;2156178;82;21619;-83
2021/04/19 10:00:29;;;;;;;8.50;7.58;;;;;;;14.47;63.87;98804.50;2156072;82;21721;-83
2021/04/19 10:03:32;;;;;;;8.68;7.65;;;;;;;14.46;60.89;98803.69;2155932;83;21190;-86
2021/04/19 10:06:36;;;;;;;6.97;5.58;;;;;;;14.39;60.93;98802.84;2156223;82;21153;-84
2021/04/19 10:09:37;;;;;;;5.65;4.67;;;;;;;14.44;58.11;98807.48;2156176;82;21685;-85
2021/04/19 10:12:39;;;;;;;6.80;5.25;;;;;;;14.26;54.82;98798.05;2156303;82;21298;-85
2021/04/19 10:15:41;;;;;;;6.03;5.35;;;;;;;14.29;55.15;98807.70;2156354;83;21305;-85
2021/04/19 10:18:43;;;;;;;3.80;3.50;;;;;;;14.16;53.54;98805.83;2156671;82;21329;-83
2021/04/19 10:21:45;;;;;;;4.05;3.75;;;;;;;13.99;53.86;98801.98;2156375;83;21348;-84
2021/04/19 10:24:47;;;;;;;4.00;3.65;;;;;;;13.85;51.90;98805.06;2156442;82;21332;-85
2021/04/19 10:27:49;;;;;;;6.15;3.90;;;;;;;13.77;55.07;98791.27;2156524;83;21320;-90
2021/04/19 10:30:51;;;;;;;4.10;3.80;;;;;;;13.77;55.07;98791.27;2156357;82;21178;-86
2021/04/19 10:33:52;;;;;;;3.80;3.50;;;;;;;13.77;51.29;98795.22;2156740;83;21327;-84
2021/04/19 10:36:55;;;;;;;4.37;3.92;;;;;;;13.89;53.54;98788.36;2167864;81;21288;-86
2021/04/19 10:39:57;;;;;;;4.35;3.98;;;;;;;14.09;54.37;98787.11;2142810;82;21175;-87
2021/04/19 10:42:58;;;;;;;3.90;3.60;;;;;;;14.20;50.96;98790.47;2168194;82;21200;-84
2021/04/19 10:46:00;;;;;;;4.03;3.62;;;;;;;14.09;52.27;98776.08;2167932;82;21660;-84
2021/04/19 10:49:03;;;;;;;4.20;3.80;;;;;;;14.05;51.75;98789.82;2167837;82;21344;-85
2021/04/19 10:52:05;;;;;;;4.75;4.20;;;;;;;14.01;52.45;98781.52;2168217;82;21181;-84
2021/04/19 10:55:08;;;;;;;4.95;4.55;;;;;;;14.01;52.87;98780.20;2168137;82;21192;-83
2021/04/19 10:58:10;;;;;;;4.95;4.45;;;;;;;14.01;51.91;98778.08;2168079;82;21534;-83
2021/04/19 11:01:12;;;;;;;4.80;3.90;;;;;;;14.15;52.63;98777.88;2168055;82;21150;-83
2021/04/19 11:04:14;;;;;;;4.47;3.77;;;;;;;14.35;51.26;98779.22;2168027;82;21714;-84
2021/04/19 11:07:16;;;;;;;6.60;4.03;;;;;;;14.58;50.85;98775.41;2167817;82;21177;-83
2021/04/19 11:10:19;;;;;;;4.83;4.42;;;;;;;14.79;50.10;98772.55;2168173;82;21161;-83
2021/04/19 11:13:21;;;;;;;5.62;4.03;;;;;;;15.02;50.87;98780.02;2167875;82;21303;-83
2021/04/19 11:16:23;;;;;;;6.60;5.17;;;;;;;15.40;51.40;98762.96;2167873;82;21190;-84
2021/04/19 11:19:25;;;;;;;4.72;3.65;;;;;;;15.74;49.34;98778.98;2167739;82;21300;-83
2021/04/19 11:22:28;;;;;;;3.70;3.50;;;;;;;15.97;49.41;98753.86;2167766;82;21285;-83
2021/04/19 11:25:29;;;;;;;4.30;3.90;;;;;;;16.11;49.49;98762.81;2167736;82;21292;-83
2021/04/19 11:28:33;;;;;;;2.90;2.70;;;;;;;16.26;48.59;98768.29;2168282;82;21181;-82
2021/04/19 11:31:35;;;;;;;4.15;2.83;;;;;;;16.30;44.64;98774.78;2168109;82;21194;-83
2021/04/19 11:34:37;;;;;;;3.05;2.85;;;;;;;16.32;46.34;98765.61;2166837;82;21193;-82
2021/04/19 11:37:39;;;;;;;3.25;3.00;;;;;;;16.32;46.68;98764.80;2156700;83;21316;-84
2021/04/19 11:40:41;;;;;;;3.02;2.70;;;;;;;16.15;44.53;98771.11;2156424;82;21332;-84
2021/04/19 11:43:43;;;;;;;2.83;2.60;;;;;;;16.00;45.58;98754.27;2155847;83;21186;-84
2021/04/19 11:46:45;;;;;;;3.90;2.77;;;;;;;15.89;45.71;98761.01;2156152;82;21308;-82
2021/04/19 11:49:48;;;;;;;3.08;2.87;;;;;;;15.92;46.05;98751.87;2156239;82;21292;-84
2021/04/19 11:52:50;;;;;;;3.10;2.77;;;;;;;15.99;45.96;98752.62;2156321;83;21324;-84
2021/04/19 11:55:51;;;;;;;2.47;2.27;;;;;;;16.16;46.25;98755.05;2156016;82;21162;-84
2021/04/19 11:58:53;;;;;;;3.92;2.70;;;;;;;16.24;44.93;98759.27;2156740;82;21155;-83
2021/04/19 12:01:55;;;;;;;2.47;2.37;;;;;;;16.32;44.72;98768.77;2155966;82;21642;-83
2021/04/19 12:04:57;;;;;;;2.10;1.90;;;;;;;16.35;42.47;98773.61;2155991;82;21276;-83
2021/04/19 12:07:59;;;;;;;3.15;2.42;;;;;;;16.35;43.54;98757.75;2156143;82;21791;-83
2021/04/19 12:11:01;;;;;;;3.05;2.70;;;;;;;16.31;44.27;98754.74;2156300;82;21324;-85
2021/04/19 12:14:03;;;;;;;3.33;2.40;;;;;;;16.31;43.18;98760.54;2156219;82;21298;-86
2021/04/19 12:17:05;;;;;;;3.37;2.65;;;;;;;16.28;43.58;98749.91;2156465;82;21686;-84
2021/04/19 12:20:07;;;;;;;3.75;3.05;;;;;;;16.37;44.25;98750.44;2155982;82;21657;-83
2021/04/19 12:23:09;;;;;;;2.77;2.58;;;;;;;16.47;44.94;98745.48;2156239;82;21748;-84
2021/04/19 12:26:12;;;;;;;2.83;2.55;;;;;;;16.58;45.83;98746.08;2156673;83;21312;-81
2021/04/19 12:29:13;;;;;;;3.17;2.62;;;;;;;16.54;43.76;98751.48;2156041;82;21292;-83
2021/04/19 12:32:15;;;;;;;3.08;2.77;;;;;;;16.59;44.65;98734.48;2156370;82;21271;-84
2021/04/19 12:35:19;;;;;;;3.50;2.75;;;;;;;16.69;44.61;98738.78;2158826;82;21190;-84
2021/04/19 12:38:20;;;;;;;2.85;2.65;;;;;;;16.58;44.62;98731.55;2168060;82;21487;-82
2021/04/19 12:41:22;;;;;;;3.35;3.12;;;;;;;16.53;44.79;98727.92;2167699;82;21154;-83
2021/04/19 12:44:24;;;;;;;3.15;2.87;;;;;;;16.41;44.33;98722.03;2167733;82;21170;-83
2021/04/19 12:47:26;;;;;;;3.55;3.27;;;;;;;16.33;44.70;98733.39;2167511;82;21300;-83
2021/04/19 12:50:28;;;;;;;3.33;3.02;;;;;;;16.29;44.32;98734.86;2167512;82;21296;-84
2021/04/19 12:53:29;;;;;;;2.80;2.65;;;;;;;16.12;44.27;98741.17;2168005;82;21312;-83
2021/04/19 12:56:31;;;;;;;4.70;2.95;;;;;;;16.09;45.02;98734.98;2167677;82;21307;-82
2021/04/19 12:59:33;;;;;;;3.45;2.65;;;;;;;16.05;44.57;98733.80;2167738;82;21771;-83
2021/04/19 13:02:35;;;;;;;6.30;3.58;;;;;;;15.90;44.45;98731.45;2168040;82;21641;-83
2021/04/19 13:05:37;;;;;;;2.60;2.50;;;;;;;15.91;44.08;98734.42;2142464;82;21791;-83
2021/04/19 13:08:39;;;;;;;2.50;2.30;;;;;;;16.05;44.35;98730.65;2167871;82;21332;-81
2021/04/19 13:11:40;;;;;;;3.17;2.80;;;;;;;16.16;44.16;98731.78;2142375;82;21320;-82
2021/04/19 13:14:42;;;;;;;2.83;2.62;;;;;;;16.32;45.00;98729.13;2167837;82;21292;-84
2021/04/19 13:17:44;;;;;;;2.52;2.30;;;;;;;16.34;43.81;98733.68;2168161;82;21150;-85
2021/04/19 13:20:47;;;;;;;3.77;3.47;;;;;;;16.33;42.37;98733.39;2167996;82;21336;-84
2021/04/19 13:23:49;;;;;;;6.20;2.60;;;;;;;16.28;43.24;98730.59;2167809;82;21336;-82
2021/04/19 13:26:51;;;;;;;6.45;3.25;;;;;;;16.21;43.77;98730.13;2168879;82;21272;-85
2021/04/19 13:29:54;;;;;;;4.12;3.47;;;;;;;16.14;43.12;98733.33;2169336;82;21288;-84
2021/04/19 13:32:56;;;;;;;3.33;3.02;;;;;;;16.08;44.74;98730.21;2169105;82;21189;-82
2021/04/19 13:35:58;;;;;;;3.37;3.08;;;;;;;15.99;43.79;98741.25;2168547;82;21256;-82
2021/04/19 13:38:59;;;;;;;3.45;3.15;;;;;;;15.91;44.31;98729.95;2167992;82;21292;-83
2021/04/19 13:42:02;;;;;;;2.75;2.55;;;;;;;15.98;44.49;98724.59;2167766;82;21158;-84
2021/04/19 13:45:04;;;;;;;4.40;3.10;;;;;;;15.99;43.28;98715.65;2167944;82;21335;-84
2021/04/19 13:48:05;;;;;;;3.35;3.15;;;;;;;16.06;44.26;98719.57;2167927;82;21157;-85
2021/04/19 13:51:07;;;;;;;4.12;3.08;;;;;;;16.04;43.72;98715.83;2167907;82;21775;-83
2021/04/19 13:54:09;;;;;;;4.50;3.12;;;;;;;16.00;43.59;98719.09;2168259;82;21184;-83
2021/04/19 13:57:11;;;;;;;4.25;3.35;;;;;;;15.99;43.81;98719.61;2168281;82;21724;-79
2021/04/19 14:00:13;;;;;;;5.85;3.35;;;;;;;15.97;42.92;98715.06;2170650;82;21314;-78
2021/04/19 14:03:15;;;;;;;3.17;2.85;;;;;;;15.95;43.24;98718.44;2168496;82;21214;-84
2021/04/19 14:06:17;;;;;;;3.10;2.80;;;;;;;15.80;44.27;98721.88;2168209;82;21166;-84
2021/04/19 14:09:19;;;;;;;3.75;3.45;;;;;;;15.75;44.76;98711.16;2167880;82;21169;-84